createdAt,value
2022-12-31T00:02:23.325Z,11.90
2022-12-31T00:04:50.545Z,11.90
2022-12-31T00:07:17.532Z,11.90
2022-12-31T00:09:44.591Z,11.86
2022-12-31T00:12:11.643Z,11.88
2022-12-31T00:14:38.776Z,11.88
2022-12-31T00:17:05.840Z,11.88
2022-12-31T00:19:33.059Z,11.87
2022-12-31T00:22:03.054Z,11.85
2022-12-31T00:24:31.249Z,11.81
2022-12-31T00:26:58.285Z,11.81
2022-12-31T00:29:25.462Z,11.80
2022-12-31T00:31:52.412Z,11.80
2022-12-31T00:34:19.644Z,11.74
2022-12-31T00:36:46.708Z,11.75
2022-12-31T00:39:13.829Z,11.73
2022-12-31T00:41:40.908Z,11.71
2022-12-31T00:44:08.140Z,11.71
2022-12-31T00:49:01.302Z,11.75
2022-12-31T00:51:29.115Z,11.73
2022-12-31T00:53:57.273Z,11.72
2022-12-31T00:56:27.924Z,11.74
2022-12-31T00:58:55.267Z,11.72
2022-12-31T01:01:25.669Z,11.69
2022-12-31T01:03:56.543Z,11.65
2022-12-31T01:06:24.421Z,11.65
2022-12-31T01:08:53.397Z,11.61
2022-12-31T01:11:22.740Z,11.63
2022-12-31T01:13:59.037Z,11.61
2022-12-31T01:16:53.270Z,11.65
2022-12-31T01:19:29.393Z,11.66
2022-12-31T01:21:56.787Z,11.61
2022-12-31T01:24:24.066Z,11.59
2022-12-31T01:26:51.973Z,11.58
2022-12-31T01:29:19.134Z,11.57
2022-12-31T01:31:46.428Z,11.55
2022-12-31T01:34:13.618Z,11.55
2022-12-31T01:36:40.716Z,11.54
2022-12-31T01:39:09.689Z,11.53
2022-12-31T01:41:39.293Z,11.50
2022-12-31T01:44:12.674Z,11.46
2022-12-31T01:46:42.400Z,11.40
2022-12-31T01:49:22.853Z,11.32
2022-12-31T01:52:02.585Z,11.25
2022-12-31T01:54:33.468Z,11.20
2022-12-31T01:57:01.118Z,11.14
2022-12-31T01:59:30.459Z,11.12
2022-12-31T02:01:58.365Z,11.13
2022-12-31T02:04:26.959Z,11.13
2022-12-31T02:06:58.669Z,11.17
2022-12-31T02:09:26.164Z,11.19
2022-12-31T02:11:53.561Z,11.22
2022-12-31T02:14:30.831Z,11.19
2022-12-31T02:17:19.478Z,11.11
2022-12-31T02:20:23.624Z,10.93
2022-12-31T02:23:08.907Z,11.02
2022-12-31T02:25:55.775Z,10.99
2022-12-31T02:29:03.133Z,10.97
2022-12-31T02:31:37.800Z,10.97
2022-12-31T02:34:13.855Z,10.94
2022-12-31T02:36:44.531Z,10.91
2022-12-31T02:39:12.640Z,10.89
2022-12-31T02:41:52.175Z,10.85
2022-12-31T02:44:34.716Z,10.82
2022-12-31T02:47:28.249Z,10.78
2022-12-31T02:50:36.981Z,10.75
2022-12-31T02:53:21.904Z,10.71
2022-12-31T02:56:21.441Z,10.70
2022-12-31T02:59:46.892Z,10.80
2022-12-31T03:02:19.771Z,10.87
2022-12-31T03:04:56.296Z,10.87
2022-12-31T03:07:29.804Z,10.88
2022-12-31T03:09:56.989Z,10.86
2022-12-31T03:12:46.043Z,10.78
2022-12-31T03:15:22.908Z,10.70
2022-12-31T03:18:05.366Z,10.65
2022-12-31T03:20:54.361Z,10.59
2022-12-31T03:23:29.392Z,10.58
2022-12-31T03:25:57.415Z,10.62
2022-12-31T03:28:27.034Z,10.67
2022-12-31T03:31:04.422Z,10.66
2022-12-31T03:33:37.947Z,10.71
2022-12-31T03:36:11.841Z,10.71
2022-12-31T03:38:39.263Z,10.70
2022-12-31T03:41:06.834Z,10.70
2022-12-31T03:43:34.018Z,10.67
2022-12-31T03:46:01.721Z,10.65
2022-12-31T03:48:28.933Z,10.68
2022-12-31T03:50:55.937Z,10.74
2022-12-31T03:53:23.301Z,10.78
2022-12-31T03:55:54.126Z,10.81
2022-12-31T03:58:21.992Z,10.81
2022-12-31T04:00:50.228Z,10.81
2022-12-31T04:03:17.441Z,10.78
2022-12-31T04:05:44.610Z,10.74
2022-12-31T04:08:11.616Z,10.68
2022-12-31T04:10:38.767Z,10.69
2022-12-31T04:13:05.850Z,10.72
2022-12-31T04:15:33.031Z,10.68
2022-12-31T04:18:00.209Z,10.62
2022-12-31T04:20:27.327Z,10.59
2022-12-31T04:22:54.270Z,10.54
2022-12-31T04:25:21.387Z,10.50
2022-12-31T04:27:48.582Z,10.51
2022-12-31T04:30:15.839Z,10.54
2022-12-31T04:32:42.882Z,10.64
2022-12-31T04:35:10.876Z,10.69
2022-12-31T04:37:37.987Z,10.66
2022-12-31T04:40:07.103Z,10.67
2022-12-31T04:42:35.252Z,10.69
2022-12-31T04:45:02.682Z,10.67
2022-12-31T04:47:29.914Z,10.67
2022-12-31T04:49:56.983Z,10.67
2022-12-31T04:52:24.064Z,10.65
2022-12-31T04:54:51.109Z,10.62
2022-12-31T04:57:18.303Z,10.54
2022-12-31T04:59:45.339Z,10.47
2022-12-31T05:02:12.781Z,10.48
2022-12-31T05:04:40.005Z,10.44
2022-12-31T05:07:07.276Z,10.38
2022-12-31T05:09:34.389Z,10.35
2022-12-31T05:12:01.467Z,10.30
2022-12-31T05:14:28.511Z,10.28
2022-12-31T05:16:56.024Z,10.34
2022-12-31T05:19:23.065Z,10.44
2022-12-31T05:22:10.145Z,10.44
2022-12-31T05:24:37.310Z,10.49
2022-12-31T05:27:04.346Z,10.57
2022-12-31T05:29:31.428Z,10.58
2022-12-31T05:31:58.543Z,10.60
2022-12-31T05:34:25.576Z,10.59
2022-12-31T05:36:53.212Z,10.59
2022-12-31T05:39:21.317Z,10.63
2022-12-31T05:41:48.282Z,10.61
2022-12-31T05:44:15.393Z,10.58
2022-12-31T05:46:42.454Z,10.58
2022-12-31T05:49:09.469Z,10.55
2022-12-31T05:51:36.489Z,10.52
2022-12-31T05:54:04.071Z,10.51
2022-12-31T05:56:31.085Z,10.54
2022-12-31T05:58:58.212Z,10.57
2022-12-31T06:01:25.312Z,10.60
2022-12-31T06:03:52.607Z,10.60
2022-12-31T06:06:19.732Z,10.60
2022-12-31T06:08:51.684Z,10.61
2022-12-31T06:11:18.890Z,10.62
2022-12-31T06:13:45.870Z,10.62
2022-12-31T06:16:13.484Z,10.61
2022-12-31T06:18:40.570Z,10.63
2022-12-31T06:21:07.781Z,10.66
2022-12-31T06:23:34.991Z,10.70
2022-12-31T06:26:05.552Z,10.75
2022-12-31T06:28:33.131Z,10.81
2022-12-31T06:31:05.914Z,10.90
2022-12-31T06:33:33.636Z,11.01
2022-12-31T06:36:03.145Z,11.17
2022-12-31T06:38:32.431Z,11.30
2022-12-31T06:41:06.569Z,11.46
2022-12-31T06:43:35.330Z,11.57
2022-12-31T06:46:03.697Z,11.67
2022-12-31T06:48:31.084Z,11.77
2022-12-31T06:51:04.543Z,11.89
2022-12-31T06:53:31.527Z,12.00
2022-12-31T06:56:06.076Z,12.07
2022-12-31T06:58:33.562Z,12.12
2022-12-31T07:01:05.222Z,12.21
2022-12-31T07:04:01.725Z,12.26
2022-12-31T07:06:38.199Z,12.33
2022-12-31T07:09:10.790Z,12.40
2022-12-31T07:11:46.518Z,12.47
2022-12-31T07:14:53.983Z,12.57
2022-12-31T07:17:54.804Z,12.66
2022-12-31T07:20:22.394Z,12.72
2022-12-31T07:22:49.835Z,12.76
2022-12-31T07:25:18.281Z,12.83
2022-12-31T07:28:20.417Z,12.92
2022-12-31T07:31:17.426Z,13.00
2022-12-31T07:34:15.900Z,13.09
2022-12-31T07:37:14.728Z,13.16
2022-12-31T07:39:46.841Z,13.25
2022-12-31T07:42:25.581Z,13.30
2022-12-31T07:45:05.769Z,13.38
2022-12-31T07:47:33.375Z,13.57
2022-12-31T07:50:00.902Z,13.76
2022-12-31T07:52:28.241Z,13.86
2022-12-31T07:54:55.489Z,14.22
2022-12-31T07:57:29.789Z,14.44
2022-12-31T08:00:13.551Z,14.43
2022-12-31T08:03:04.863Z,14.47
2022-12-31T08:05:44.190Z,14.47
2022-12-31T08:08:29.272Z,14.48
2022-12-31T08:11:15.786Z,14.57
2022-12-31T08:13:43.423Z,14.65
2022-12-31T08:16:13.591Z,14.63
2022-12-31T08:18:41.061Z,14.70
2022-12-31T08:21:30.999Z,14.77
2022-12-31T08:24:20.172Z,14.87
2022-12-31T08:27:00.481Z,14.91
2022-12-31T08:29:27.465Z,14.98
2022-12-31T08:32:12.319Z,15.08
2022-12-31T08:34:55.871Z,15.17
2022-12-31T08:37:22.756Z,15.24
2022-12-31T08:40:28.318Z,15.35
2022-12-31T08:43:10.452Z,15.42
2022-12-31T08:45:58.003Z,15.57
2022-12-31T08:48:33.191Z,15.70
2022-12-31T08:51:00.420Z,15.85
2022-12-31T08:53:27.833Z,15.95
2022-12-31T08:56:15.694Z,16.08
2022-12-31T08:59:00.950Z,16.22
2022-12-31T09:01:36.345Z,16.39
2022-12-31T09:04:20.482Z,16.55
2022-12-31T09:06:58.954Z,16.65
2022-12-31T09:09:42.512Z,16.82
2022-12-31T09:12:32.881Z,17.02
2022-12-31T09:15:12.002Z,17.11
2022-12-31T09:17:46.104Z,17.04
2022-12-31T09:20:45.350Z,17.05
2022-12-31T09:23:13.536Z,17.21
2022-12-31T09:26:10.112Z,17.22
2022-12-31T09:28:58.801Z,17.15
2022-12-31T09:31:52.227Z,17.32
2022-12-31T09:34:22.223Z,17.51
2022-12-31T09:36:54.704Z,17.57
2022-12-31T09:39:35.720Z,17.62
2022-12-31T09:43:01.474Z,17.79
2022-12-31T09:45:47.001Z,17.78
2022-12-31T09:48:41.614Z,17.77
2022-12-31T09:51:56.229Z,17.94
2022-12-31T09:54:26.035Z,17.91
2022-12-31T09:57:13.074Z,17.94
2022-12-31T09:59:58.512Z,17.99
2022-12-31T10:02:48.764Z,18.02
2022-12-31T10:05:18.906Z,18.11
2022-12-31T10:08:19.563Z,18.10
2022-12-31T10:10:57.783Z,18.17
2022-12-31T10:13:44.332Z,18.24
2022-12-31T10:16:41.766Z,18.27
2022-12-31T10:19:27.443Z,18.37
2022-12-31T10:22:02.913Z,18.46
2022-12-31T10:25:01.074Z,18.54
2022-12-31T10:27:43.707Z,18.69
2022-12-31T10:30:19.820Z,18.74
2022-12-31T10:33:13.114Z,18.80
2022-12-31T10:35:50.878Z,18.85
2022-12-31T10:38:36.434Z,18.92
2022-12-31T10:41:49.410Z,18.93
2022-12-31T10:44:45.192Z,19.05
2022-12-31T10:47:24.420Z,19.03
2022-12-31T10:50:12.171Z,19.12
2022-12-31T10:52:45.477Z,19.14
2022-12-31T10:55:49.778Z,19.25
2022-12-31T10:58:58.019Z,19.36
2022-12-31T11:01:33.022Z,19.52
2022-12-31T11:04:12.210Z,19.51
2022-12-31T11:06:48.546Z,19.13
2022-12-31T11:09:38.770Z,18.94
2022-12-31T11:12:16.821Z,18.96
2022-12-31T11:15:03.821Z,18.74
2022-12-31T11:17:36.739Z,18.64
2022-12-31T11:20:40.737Z,18.93
2022-12-31T11:23:31.527Z,18.83
2022-12-31T11:26:40.860Z,18.76
2022-12-31T11:29:23.025Z,18.82
2022-12-31T11:32:02.291Z,18.75
2022-12-31T11:35:03.935Z,18.54
2022-12-31T11:37:41.734Z,18.43
2022-12-31T11:40:33.552Z,18.30
2022-12-31T11:43:22.825Z,18.41
2022-12-31T11:46:17.012Z,18.63
2022-12-31T11:49:00.844Z,18.90
2022-12-31T11:51:27.890Z,19.12
2022-12-31T11:54:39.041Z,18.82
2022-12-31T11:57:24.735Z,18.95
2022-12-31T11:59:57.998Z,19.05
2022-12-31T12:02:34.400Z,19.01
2022-12-31T12:05:11.506Z,19.13
2022-12-31T12:07:39.061Z,19.07
2022-12-31T12:10:31.767Z,18.96
2022-12-31T12:13:13.646Z,19.08
2022-12-31T12:15:44.493Z,19.03
2022-12-31T12:18:34.113Z,19.14
2022-12-31T12:21:05.831Z,19.36
2022-12-31T12:23:33.096Z,19.51
2022-12-31T12:26:00.230Z,19.59
2022-12-31T12:28:30.831Z,19.51
2022-12-31T12:31:01.985Z,19.44
2022-12-31T12:33:41.320Z,19.04
2022-12-31T12:36:11.088Z,19.02
2022-12-31T12:38:39.270Z,18.95
2022-12-31T12:41:11.614Z,18.85
2022-12-31T12:43:40.122Z,18.72
2022-12-31T12:46:30.657Z,18.95
2022-12-31T12:48:59.822Z,18.78
2022-12-31T12:51:35.830Z,18.61
2022-12-31T12:54:37.138Z,18.52
2022-12-31T12:57:24.553Z,18.49
2022-12-31T13:00:29.907Z,18.55
2022-12-31T13:03:27.070Z,18.53
2022-12-31T13:06:03.397Z,18.35
2022-12-31T13:09:00.143Z,18.34
2022-12-31T13:11:39.761Z,18.47
2022-12-31T13:14:30.998Z,18.49
2022-12-31T13:17:21.238Z,18.47
2022-12-31T13:20:26.287Z,18.51
2022-12-31T13:23:21.306Z,18.61
2022-12-31T13:26:02.073Z,18.57
2022-12-31T13:28:31.924Z,18.49
2022-12-31T13:31:06.788Z,18.33
2022-12-31T13:33:50.338Z,18.31
2022-12-31T13:36:21.471Z,18.19
2022-12-31T13:38:53.672Z,18.22
2022-12-31T13:41:26.610Z,18.24
2022-12-31T13:44:12.451Z,18.32
2022-12-31T13:46:46.030Z,18.44
2022-12-31T13:49:24.988Z,18.43
2022-12-31T13:52:16.796Z,18.30
2022-12-31T13:54:54.525Z,18.28
2022-12-31T13:58:16.613Z,18.38
2022-12-31T14:00:49.295Z,18.39
2022-12-31T14:03:44.277Z,18.28
2022-12-31T14:06:24.181Z,18.24
2022-12-31T14:08:53.570Z,18.20
2022-12-31T14:11:39.419Z,18.20
2022-12-31T14:14:29.663Z,18.35
2022-12-31T14:17:19.772Z,18.20
2022-12-31T14:20:17.928Z,17.92
2022-12-31T14:23:20.201Z,17.88
2022-12-31T14:25:57.402Z,17.67
2022-12-31T14:28:33.061Z,17.63
2022-12-31T14:31:13.882Z,17.50
2022-12-31T14:33:55.079Z,17.40
2022-12-31T14:36:34.365Z,17.41
2022-12-31T14:39:26.321Z,17.30
2022-12-31T14:42:09.073Z,17.15
2022-12-31T14:44:43.067Z,17.05
2022-12-31T14:47:18.960Z,17.01
2022-12-31T14:50:11.023Z,16.98
2022-12-31T14:53:04.406Z,16.96
2022-12-31T14:55:34.301Z,16.98
2022-12-31T15:00:57.016Z,17.03
2022-12-31T15:03:41.210Z,17.04
2022-12-31T15:06:15.084Z,17.00
2022-12-31T15:09:08.248Z,16.97
2022-12-31T15:11:49.722Z,16.92
2022-12-31T15:14:38.490Z,16.85
2022-12-31T15:17:24.038Z,16.81
2022-12-31T15:20:16.932Z,16.74
2022-12-31T15:22:50.425Z,16.62
2022-12-31T15:25:31.697Z,16.54
2022-12-31T15:28:05.683Z,16.40
2022-12-31T15:30:44.858Z,16.29
2022-12-31T15:33:29.833Z,16.19
2022-12-31T15:35:58.587Z,16.11
2022-12-31T15:38:33.311Z,16.02
2022-12-31T15:41:01.256Z,16.02
2022-12-31T15:43:37.071Z,16.02
2022-12-31T15:46:16.570Z,15.99
2022-12-31T15:49:04.970Z,15.87
2022-12-31T15:51:42.601Z,15.75
2022-12-31T15:54:23.192Z,15.64
2022-12-31T15:56:52.113Z,15.56
2022-12-31T15:59:21.565Z,15.57
2022-12-31T16:01:49.192Z,15.52
2022-12-31T16:04:22.909Z,15.40
2022-12-31T16:06:51.396Z,15.29
2022-12-31T16:09:29.190Z,15.23
2022-12-31T16:11:59.312Z,15.16
2022-12-31T16:14:37.609Z,15.12
2022-12-31T16:17:06.316Z,15.08
2022-12-31T16:19:52.313Z,15.12
2022-12-31T16:22:26.935Z,15.06
2022-12-31T16:25:29.669Z,15.01
2022-12-31T16:27:50.137Z,14.99
2022-12-31T16:30:32.295Z,14.98
2022-12-31T16:33:03.836Z,14.90
2022-12-31T16:35:39.387Z,14.85
2022-12-31T16:38:19.747Z,14.78
2022-12-31T16:41:01.728Z,14.75
2022-12-31T16:43:35.809Z,14.72
2022-12-31T16:46:19.589Z,14.67
2022-12-31T16:48:57.361Z,14.67
2022-12-31T16:51:32.561Z,14.69
2022-12-31T16:54:02.160Z,14.67
2022-12-31T16:56:37.959Z,14.70
2022-12-31T16:59:31.926Z,14.71
2022-12-31T17:02:04.913Z,14.71
2022-12-31T17:04:32.216Z,14.72
2022-12-31T17:07:25.317Z,14.73
2022-12-31T17:10:07.628Z,14.74
2022-12-31T17:13:01.036Z,14.75
2022-12-31T17:15:40.484Z,14.75
2022-12-31T17:18:08.569Z,14.72
2022-12-31T17:20:36.742Z,14.71
2022-12-31T17:23:09.455Z,14.66
2022-12-31T17:25:38.462Z,14.64
2022-12-31T17:28:23.426Z,14.59
2022-12-31T17:30:51.387Z,14.59
2022-12-31T17:33:18.396Z,14.56
2022-12-31T17:35:46.588Z,14.50
2022-12-31T17:38:22.616Z,14.56
2022-12-31T17:40:53.694Z,14.56
2022-12-31T17:43:23.955Z,14.59
2022-12-31T17:45:51.974Z,14.56
2022-12-31T17:48:20.585Z,14.52
2022-12-31T17:50:56.675Z,14.54
2022-12-31T17:53:23.779Z,14.55
2022-12-31T17:55:53.538Z,14.60
2022-12-31T17:58:29.635Z,14.58
2022-12-31T18:00:58.161Z,14.55
2022-12-31T18:03:25.533Z,14.56
2022-12-31T18:05:52.634Z,14.54
2022-12-31T18:08:19.740Z,14.57
2022-12-31T18:10:47.153Z,14.61
2022-12-31T18:13:20.407Z,14.61
2022-12-31T18:15:47.342Z,14.60
2022-12-31T18:18:25.538Z,14.57
2022-12-31T18:20:58.835Z,14.52
2022-12-31T18:23:46.509Z,14.53
2022-12-31T18:26:18.788Z,14.51
2022-12-31T18:28:46.699Z,14.56
2022-12-31T18:31:25.582Z,14.56
2022-12-31T18:33:54.653Z,14.61
2022-12-31T18:36:23.095Z,14.59
2022-12-31T18:38:51.083Z,14.57
2022-12-31T18:41:20.709Z,14.53
2022-12-31T18:43:48.350Z,14.54
2022-12-31T18:46:20.553Z,14.50
2022-12-31T18:48:47.885Z,14.43
2022-12-31T18:51:23.974Z,14.39
2022-12-31T18:53:53.703Z,14.36
2022-12-31T18:56:22.304Z,14.35
2022-12-31T18:58:49.408Z,14.32
2022-12-31T19:01:25.232Z,14.31
2022-12-31T19:03:52.733Z,14.31
2022-12-31T19:06:19.779Z,14.34
2022-12-31T19:08:46.911Z,14.30
2022-12-31T19:11:15.289Z,14.28
2022-12-31T19:13:42.552Z,14.26
2022-12-31T19:16:10.280Z,14.29
2022-12-31T19:18:37.851Z,14.30
2022-12-31T19:21:05.165Z,14.28
2022-12-31T19:23:32.364Z,14.24
2022-12-31T19:25:59.425Z,14.20
2022-12-31T19:28:27.857Z,14.14
2022-12-31T19:30:56.067Z,14.07
2022-12-31T19:33:24.734Z,14.04
2022-12-31T19:35:51.886Z,13.99
2022-12-31T19:38:26.517Z,13.99
2022-12-31T19:40:54.975Z,13.94
2022-12-31T19:43:23.807Z,13.89
2022-12-31T19:45:52.995Z,13.84
2022-12-31T19:48:28.760Z,13.79
2022-12-31T19:50:59.810Z,13.76
2022-12-31T19:53:28.215Z,13.71
2022-12-31T19:55:55.393Z,13.69
2022-12-31T19:58:28.589Z,13.69
2022-12-31T20:01:02.346Z,13.69
2022-12-31T20:03:32.840Z,13.76
2022-12-31T20:06:06.232Z,13.73
2022-12-31T20:08:34.565Z,13.68
2022-12-31T20:11:13.510Z,13.66
2022-12-31T20:13:42.751Z,13.61
2022-12-31T20:16:12.456Z,13.59
2022-12-31T20:18:41.212Z,13.58
2022-12-31T20:21:15.045Z,13.58
2022-12-31T20:23:42.305Z,13.58
2022-12-31T20:26:09.980Z,13.57
2022-12-31T20:28:37.893Z,13.53
2022-12-31T20:31:09.828Z,13.52
2022-12-31T20:33:37.171Z,13.51
2022-12-31T20:36:05.857Z,13.49
2022-12-31T20:38:32.906Z,13.46
2022-12-31T20:41:20.427Z,13.44
2022-12-31T20:43:48.164Z,13.44
2022-12-31T20:46:20.876Z,13.45
2022-12-31T20:48:50.163Z,13.47
2022-12-31T20:51:18.257Z,13.44
2022-12-31T20:53:47.916Z,13.42
2022-12-31T20:56:15.957Z,13.42
2022-12-31T20:58:43.737Z,13.42
2022-12-31T21:01:11.407Z,13.41
2022-12-31T21:06:28.668Z,13.37
2022-12-31T21:08:57.755Z,13.34
2022-12-31T21:11:43.496Z,13.30
2022-12-31T21:14:10.609Z,13.26
2022-12-31T21:16:37.610Z,13.23
2022-12-31T21:19:05.664Z,13.20
2022-12-31T21:21:32.829Z,13.18
2022-12-31T21:23:59.852Z,13.13
2022-12-31T21:26:27.748Z,13.11
2022-12-31T21:28:54.839Z,13.11
2022-12-31T21:31:22.050Z,13.09
2022-12-31T21:33:49.501Z,13.06
2022-12-31T21:36:16.582Z,13.01
2022-12-31T21:38:44.464Z,13.03
2022-12-31T21:41:33.547Z,13.08
2022-12-31T21:44:01.610Z,13.08
2022-12-31T21:46:29.256Z,13.06
2022-12-31T21:48:58.645Z,13.02
2022-12-31T21:51:26.572Z,12.98
2022-12-31T21:53:53.597Z,12.94
2022-12-31T21:56:21.821Z,12.91
2022-12-31T21:59:13.658Z,12.89
2022-12-31T22:01:59.489Z,12.83
2022-12-31T22:07:14.146Z,12.81
2022-12-31T22:09:41.194Z,12.78
2022-12-31T22:12:08.289Z,12.76
2022-12-31T22:14:35.430Z,12.77
2022-12-31T22:17:02.410Z,12.82
2022-12-31T22:19:29.387Z,12.80
2022-12-31T22:21:56.503Z,12.75
2022-12-31T22:24:23.575Z,12.69
2022-12-31T22:26:52.222Z,12.67
2022-12-31T22:29:19.985Z,12.64
2022-12-31T22:31:47.400Z,12.63
2022-12-31T22:34:14.630Z,12.63
2022-12-31T22:36:41.756Z,12.63
2022-12-31T22:39:44.787Z,12.60
2022-12-31T22:42:02.200Z,12.55
2022-12-31T22:44:29.413Z,12.57
2022-12-31T22:46:56.503Z,12.55
2022-12-31T22:49:23.749Z,12.53
2022-12-31T22:51:57.299Z,12.51
2022-12-31T22:54:26.130Z,12.48
2022-12-31T22:56:53.272Z,12.48
2022-12-31T22:59:20.501Z,12.47
2022-12-31T23:01:48.350Z,12.43
2022-12-31T23:04:15.954Z,12.43
2022-12-31T23:06:46.240Z,12.40
2022-12-31T23:09:34.054Z,12.35
2022-12-31T23:12:01.762Z,12.33
2022-12-31T23:14:47.555Z,12.30
2022-12-31T23:17:36.758Z,12.29
2022-12-31T23:20:24.524Z,12.28
2022-12-31T23:23:09.688Z,12.28
2022-12-31T23:25:43.398Z,12.28
2022-12-31T23:28:28.335Z,12.32
2022-12-31T23:30:55.434Z,12.36
2022-12-31T23:33:26.619Z,12.37
2022-12-31T23:36:05.591Z,12.35
2022-12-31T23:38:32.670Z,12.29
2022-12-31T23:40:59.609Z,12.31
2022-12-31T23:43:26.716Z,12.34
2022-12-31T23:45:53.760Z,12.33
2022-12-31T23:48:20.934Z,12.37
2022-12-31T23:50:53.363Z,12.35
2022-12-31T23:53:25.116Z,12.37
2022-12-31T23:55:53.162Z,12.34
2022-12-31T23:58:21.275Z,12.30
